createdAt,value
2022-09-03T00:02:18.577Z,0
2022-09-03T00:08:38.367Z,0
2022-09-03T00:15:01.377Z,0
2022-09-03T00:21:21.315Z,0
2022-09-03T00:27:44.394Z,0
2022-09-03T00:34:04.363Z,0
2022-09-03T00:40:27.343Z,0
2022-09-03T00:46:47.404Z,0
2022-09-03T00:53:10.395Z,0
2022-09-03T00:59:30.366Z,0
2022-09-03T01:05:53.336Z,0
2022-09-03T01:12:13.403Z,0
2022-09-03T01:18:36.397Z,0
2022-09-03T01:24:56.364Z,0
2022-09-03T01:31:19.429Z,0
2022-09-03T01:37:39.337Z,0
2022-09-03T01:44:02.342Z,0
2022-09-03T01:50:22.345Z,0
2022-09-03T01:56:45.390Z,0
2022-09-03T02:03:05.360Z,0
2022-09-03T02:09:32.546Z,0
2022-09-03T02:15:48.407Z,0
2022-09-03T02:22:11.338Z,0
2022-09-03T02:28:31.521Z,0
2022-09-03T02:34:54.349Z,0
2022-09-03T02:41:14.419Z,0
2022-09-03T02:47:37.324Z,0
2022-09-03T02:53:57.325Z,0
2022-09-03T03:00:20.377Z,0
2022-09-03T03:06:40.317Z,0
2022-09-03T03:13:03.367Z,0
2022-09-03T03:19:23.335Z,0
2022-09-03T03:25:46.341Z,0
2022-09-03T03:32:06.378Z,0
2022-09-03T03:38:29.351Z,0
2022-09-03T03:54:37.276Z,0
2022-09-03T04:00:57.373Z,0
2022-09-03T04:07:20.343Z,0
2022-09-03T04:13:40.343Z,1
2022-09-03T04:20:03.392Z,1
2022-09-03T04:26:23.446Z,3
2022-09-03T04:32:46.313Z,8
2022-09-03T04:39:06.310Z,18
2022-09-03T04:45:29.374Z,42
2022-09-03T04:51:49.347Z,84
2022-09-03T04:58:12.376Z,136
2022-09-03T05:04:32.330Z,184
2022-09-03T05:10:55.312Z,231
2022-09-03T05:17:15.363Z,306
2022-09-03T05:23:38.333Z,378
2022-09-03T05:29:58.412Z,464
2022-09-03T05:36:21.361Z,545
2022-09-03T05:42:41.325Z,656
2022-09-03T05:49:04.322Z,757
2022-09-03T05:55:24.318Z,835
2022-09-03T06:01:50.855Z,866
2022-09-03T06:08:07.319Z,965
2022-09-03T06:14:30.324Z,1044
2022-09-03T06:20:50.351Z,1206
2022-09-03T06:27:13.327Z,1351
2022-09-03T06:33:33.374Z,1528
2022-09-03T06:39:56.397Z,1713
2022-09-03T06:46:16.373Z,1824
2022-09-03T06:52:39.363Z,1954
2022-09-03T06:58:59.320Z,1803
2022-09-03T07:05:22.387Z,1718
2022-09-03T07:11:42.350Z,1774
2022-09-03T07:18:05.323Z,1807
2022-09-03T07:24:25.348Z,1560
2022-09-03T07:30:48.325Z,1573
2022-09-03T07:37:08.392Z,1637
2022-09-03T07:43:31.371Z,1795
2022-09-03T07:49:51.404Z,1840
2022-09-03T07:56:14.351Z,1588
2022-09-03T08:02:34.372Z,1248
2022-09-03T08:09:00.838Z,1062
2022-09-03T08:15:17.380Z,1133
2022-09-03T08:21:40.446Z,1292
2022-09-03T08:28:00.430Z,1299
2022-09-03T08:34:23.343Z,1519
2022-09-03T08:40:43.444Z,1676
2022-09-03T08:47:06.352Z,1969
2022-09-03T08:53:26.356Z,2577
2022-09-03T08:59:49.381Z,2599
2022-09-03T09:06:09.365Z,2527
2022-09-03T09:30:10.861Z,3194
2022-09-03T09:36:30.325Z,3582
2022-09-03T09:42:53.392Z,3757
2022-09-03T09:49:13.396Z,3758
2022-09-03T09:55:36.328Z,3840
2022-09-03T10:01:56.407Z,4229
2022-09-03T10:08:19.456Z,4852
2022-09-03T10:14:39.395Z,4388
2022-09-03T10:21:02.340Z,4066
2022-09-03T10:27:22.333Z,3867
2022-09-03T10:33:45.417Z,6108
2022-09-03T10:40:05.375Z,5207
2022-09-03T10:46:28.463Z,4559
2022-09-03T10:52:48.342Z,4008
2022-09-03T10:59:11.338Z,4090
2022-09-03T11:05:31.401Z,4955
2022-09-03T11:11:54.378Z,4931
2022-09-03T11:18:14.374Z,4348
2022-09-03T11:24:37.339Z,3970
2022-09-03T11:30:57.392Z,5901
2022-09-03T11:37:20.385Z,3020
2022-09-03T11:43:40.330Z,2445
2022-09-03T11:50:03.416Z,2518
2022-09-03T11:56:23.403Z,5568
2022-09-03T12:02:46.447Z,5715
2022-09-03T12:09:06.353Z,2125
2022-09-03T12:15:29.309Z,4390
2022-09-03T12:21:49.361Z,5975
2022-09-03T12:28:12.328Z,6102
2022-09-03T12:34:32.323Z,6228
2022-09-03T12:53:38.377Z,6482
2022-09-03T12:59:58.321Z,6618
2022-09-03T13:06:21.327Z,6778
2022-09-03T13:12:41.356Z,6844
2022-09-03T13:19:04.332Z,6978
2022-09-03T13:25:24.357Z,2060
2022-09-03T13:31:47.340Z,6786
2022-09-03T13:38:07.349Z,6832
2022-09-03T13:44:30.348Z,6723
2022-09-03T13:50:50.312Z,2123
2022-09-03T13:57:13.372Z,6549
2022-09-03T14:03:33.330Z,6833
2022-09-03T14:09:56.317Z,6283
2022-09-03T14:16:16.364Z,6319
2022-09-03T14:22:39.315Z,5299
2022-09-03T14:28:59.383Z,6043
2022-09-03T14:35:22.312Z,3124
2022-09-03T14:41:42.324Z,2960
2022-09-03T14:48:05.342Z,3266
2022-09-03T14:54:25.310Z,3945
2022-09-03T15:17:31.324Z,2701
2022-09-03T15:23:54.317Z,1964
2022-09-03T15:30:14.379Z,1830
2022-09-03T15:36:37.312Z,1390
2022-09-03T15:42:57.326Z,1191
2022-09-03T15:49:20.324Z,1332
2022-09-03T15:55:40.313Z,964
2022-09-03T16:02:03.351Z,564
2022-09-03T16:08:23.336Z,232
2022-09-03T16:14:46.318Z,128
2022-09-03T16:21:06.325Z,150
2022-09-03T16:27:29.323Z,180
2022-09-03T16:33:49.365Z,213
2022-09-03T16:40:12.318Z,243
2022-09-03T16:46:32.345Z,242
2022-09-03T16:52:55.339Z,246
2022-09-03T16:59:15.325Z,209
2022-09-03T17:05:38.358Z,193
2022-09-03T17:11:58.312Z,241
2022-09-03T17:18:21.316Z,279
2022-09-03T17:24:41.356Z,321
2022-09-03T17:31:04.344Z,419
2022-09-03T17:37:24.359Z,381
2022-09-03T17:43:47.308Z,343
2022-09-03T17:50:07.372Z,282
2022-09-03T17:56:30.317Z,312
2022-09-03T18:02:51.316Z,238
2022-09-03T18:09:14.360Z,110
2022-09-03T18:15:34.300Z,63
2022-09-03T18:21:57.361Z,32
2022-09-03T18:28:17.299Z,12
2022-09-03T18:34:40.306Z,4
2022-09-03T18:41:00.340Z,2
2022-09-03T18:48:01.252Z,0
2022-09-03T18:53:43.348Z,1
2022-09-03T19:00:06.308Z,0
2022-09-03T19:06:26.302Z,0
2022-09-03T19:12:53.387Z,0
2022-09-03T19:19:13.354Z,0
2022-09-03T19:25:32.362Z,0
2022-09-03T19:31:52.299Z,0
2022-09-03T19:38:15.505Z,0
2022-09-03T19:44:35.309Z,0
2022-09-03T19:50:58.328Z,0
2022-09-03T19:57:18.343Z,0
2022-09-03T20:03:41.305Z,0
2022-09-03T20:10:01.383Z,0
2022-09-03T20:16:24.331Z,0
2022-09-03T20:22:44.360Z,0
2022-09-03T20:29:07.316Z,0
2022-09-03T20:35:27.329Z,0
2022-09-03T20:58:51.456Z,0
2022-09-03T21:05:14.318Z,0
2022-09-03T21:11:34.312Z,0
2022-09-03T21:17:57.353Z,0
2022-09-03T21:24:17.306Z,0
2022-09-03T21:30:40.417Z,0
2022-09-03T21:37:00.319Z,0
2022-09-03T21:43:23.314Z,0
2022-09-03T21:49:43.360Z,0
2022-09-03T21:56:06.314Z,0
2022-09-03T22:20:20.310Z,0
2022-09-03T22:26:40.487Z,0
2022-09-03T22:33:03.306Z,0
2022-09-03T22:39:23.384Z,0
2022-09-03T22:45:46.354Z,0
2022-09-03T22:52:06.346Z,0
2022-09-03T22:58:29.306Z,0
2022-09-03T23:04:49.360Z,0
2022-09-03T23:11:12.313Z,0
2022-09-03T23:23:51.328Z,0
2022-09-03T23:30:11.356Z,0
2022-09-03T23:36:55.353Z,0
2022-09-03T23:42:54.314Z,0
2022-09-03T23:49:17.339Z,0
2022-09-03T23:55:37.311Z,0
